Time;durP1;ratioP1;P1;durP2;ratioP2;P2;SDS_P1;SDS_P2;PMS_P1;PMS_P2;Temp;Humidity;BMP_temperature;BMP_pressure;BME280_temperature;BME280_humidity;BME280_pressure;Samples;Min_cycle;Max_cycle;Signal;HPM_P1;HPM_P2
2022/01/28 00:02:31;;;;;;;9.53;1.80;;;;;;;5.05;87.79;100888.31;5083614;28;20230;-54
2022/01/28 00:04:57;;;;;;;8.90;2.70;;;;;;;5.13;88.04;100893.72;5080670;27;20335;-50
2022/01/28 00:07:23;;;;;;;7.00;2.27;;;;;;;5.05;88.49;100893.50;5078197;28;20708;-54
2022/01/28 00:09:50;;;;;;;8.47;2.27;;;;;;;5.04;87.69;100891.75;5080349;28;20226;-54
2022/01/28 00:12:16;;;;;;;15.77;2.60;;;;;;;4.99;87.95;100890.78;5083678;27;20222;-49
2022/01/28 00:14:49;;;;;;;8.77;2.03;;;;;;;5.03;89.19;100890.88;5077603;28;20307;-54
2022/01/28 00:18:05;;;;;;;11.10;2.80;;;;;;;5.03;88.99;100901.28;5089318;28;20246;-50
2022/01/28 00:21:05;;;;;;;10.90;3.03;;;;;;;5.05;89.07;100896.13;5090598;27;20234;-52
2022/01/28 00:37:26;;;;;;;7.27;2.20;;;;;;;5.02;88.42;100914.28;5090613;27;20264;-50
2022/01/28 00:39:53;;;;;;;9.00;2.90;;;;;;;5.05;88.40;100923.88;5081672;27;20246;-50
2022/01/28 00:42:19;;;;;;;7.77;1.93;;;;;;;5.00;89.58;100905.56;5081834;27;20246;-51
2022/01/28 00:44:45;;;;;;;7.67;2.60;;;;;;;5.04;89.39;100920.38;5091122;27;20682;-51
2022/01/28 00:47:12;;;;;;;11.87;3.00;;;;;;;5.03;90.10;100905.63;5090055;28;20291;-50
2022/01/28 00:49:39;;;;;;;11.37;2.87;;;;;;;5.08;88.89;100922.22;5092472;27;20415;-53
2022/01/28 00:52:06;;;;;;;8.73;2.10;;;;;;;5.04;89.62;100930.78;5086551;28;20231;-52
2022/01/28 00:54:32;;;;;;;7.33;2.97;;;;;;;5.05;89.25;100929.94;5089672;27;20257;-54
2022/01/28 00:56:59;;;;;;;8.47;2.40;;;;;;;5.04;90.02;100946.41;5098992;28;20968;-52
2022/01/28 00:59:25;;;;;;;9.03;2.37;;;;;;;5.02;89.53;100941.19;5102892;28;20245;-57
2022/01/28 01:01:51;;;;;;;6.53;1.97;;;;;;;5.02;88.68;100942.91;5099673;28;20223;-54
2022/01/28 01:04:18;;;;;;;10.73;2.37;;;;;;;4.99;89.37;100945.44;5099492;28;20268;-56
2022/01/28 01:06:46;;;;;;;8.90;2.30;;;;;;;4.98;89.77;100949.75;5103722;27;20261;-53
2022/01/28 01:09:12;;;;;;;9.37;3.03;;;;;;;4.98;88.62;100956.66;5104165;27;20298;-54
2022/01/28 01:11:40;;;;;;;9.80;2.67;;;;;;;4.93;89.40;100953.06;5098692;28;20238;-51
2022/01/28 01:14:06;;;;;;;5.70;2.10;;;;;;;4.96;89.15;100968.75;5099171;28;20242;-52
2022/01/28 01:16:41;;;;;;;8.70;2.80;;;;;;;4.97;89.62;100970.50;5090147;27;20234;-50
2022/01/28 01:19:17;;;;;;;5.67;1.90;;;;;;;4.94;90.12;100973.03;5092706;28;20301;-53
2022/01/28 01:21:44;;;;;;;8.77;2.90;;;;;;;4.95;89.92;100985.19;5097339;28;20294;-50
2022/01/28 01:24:20;;;;;;;8.20;2.53;;;;;;;5.01;90.06;100991.44;5087265;28;20235;-53
2022/01/28 01:26:46;;;;;;;10.17;2.53;;;;;;;4.92;89.04;100969.53;5085468;28;20257;-54
2022/01/28 01:29:14;;;;;;;6.80;2.33;;;;;;;4.92;89.23;100993.81;5098117;28;20297;-50
2022/01/28 01:31:42;;;;;;;5.17;2.37;;;;;;;4.92;89.78;100982.53;5090634;28;20723;-51
2022/01/28 01:34:12;;;;;;;7.77;2.47;;;;;;;4.77;89.95;101007.31;5082625;27;20226;-52
2022/01/28 01:36:39;;;;;;;9.53;3.57;;;;;;;4.87;88.77;101002.34;5083880;28;20231;-49
2022/01/28 01:39:07;;;;;;;10.83;2.00;;;;;;;4.82;89.53;100989.22;5089016;27;20234;-52
2022/01/28 01:41:39;;;;;;;11.00;3.57;;;;;;;4.76;88.70;100995.13;5086332;28;20254;-49
2022/01/28 01:44:09;;;;;;;15.83;3.53;;;;;;;4.89;88.64;101005.88;5082930;27;20231;-49
2022/01/28 01:46:56;;;;;;;12.87;2.57;;;;;;;4.87;88.86;101015.34;5083953;27;20241;-52
2022/01/28 01:52:07;;;;;;;8.43;2.67;;;;;;;4.75;90.21;101008.09;5091311;27;20296;-50
2022/01/28 01:54:37;;;;;;;12.73;3.30;;;;;;;4.79;90.19;101022.94;5082144;28;20238;-51
2022/01/28 01:57:06;;;;;;;16.50;3.17;;;;;;;4.75;90.94;101021.97;5085878;28;20239;-52
2022/01/28 01:59:33;;;;;;;11.57;2.50;;;;;;;4.79;91.86;101030.75;5085290;28;20295;-51
2022/01/28 02:01:59;;;;;;;9.10;3.17;;;;;;;4.74;91.85;101027.16;5085362;27;20348;-52
2022/01/28 02:04:25;;;;;;;8.20;2.60;;;;;;;4.81;91.38;101028.19;5091026;28;20246;-58
2022/01/28 02:06:53;;;;;;;8.00;2.20;;;;;;;4.75;92.43;101040.19;5089271;28;20630;-51
2022/01/28 02:09:19;;;;;;;11.93;3.47;;;;;;;4.74;90.58;101048.84;5090505;27;20538;-51
2022/01/28 02:11:46;;;;;;;9.60;3.07;;;;;;;4.79;90.51;101056.75;5082671;28;20259;-50
2022/01/28 02:14:13;;;;;;;15.40;3.93;;;;;;;4.81;90.00;101046.38;5091215;27;20349;-52
2022/01/28 02:16:40;;;;;;;8.47;2.67;;;;;;;4.78;89.38;101055.88;5092795;28;20234;-59
2022/01/28 02:19:06;;;;;;;15.57;2.70;;;;;;;4.77;88.38;101054.13;5096174;27;20291;-53
2022/01/28 02:21:39;;;;;;;7.40;2.90;;;;;;;4.82;87.84;101063.78;5096749;27;20326;-53
2022/01/28 02:24:07;;;;;;;9.17;2.13;;;;;;;4.82;87.85;101066.38;5086355;27;20223;-50
2022/01/28 02:26:35;;;;;;;10.90;2.87;;;;;;;4.89;87.87;101066.59;5097626;28;20235;-52
2022/01/28 02:29:08;;;;;;;15.37;2.50;;;;;;;4.81;88.30;101068.09;5097246;28;20246;-55
2022/01/28 02:31:34;;;;;;;9.17;2.00;;;;;;;4.90;87.49;101070.06;5095935;28;20916;-53
2022/01/28 02:34:01;;;;;;;8.37;2.40;;;;;;;4.88;87.79;101082.13;5091883;28;20278;-53
2022/01/28 02:36:28;;;;;;;9.03;3.30;;;;;;;4.86;88.06;101078.63;5088716;27;20256;-50
2022/01/28 02:38:57;;;;;;;13.13;3.70;;;;;;;4.86;88.42;101099.44;5085307;28;20284;-49
2022/01/28 02:41:27;;;;;;;7.10;2.10;;;;;;;4.74;89.34;101098.25;5076054;28;20262;-50
2022/01/28 02:44:06;;;;;;;9.40;2.70;;;;;;;4.83;89.75;101100.22;5084624;28;20233;-51
2022/01/28 02:46:34;;;;;;;10.17;3.17;;;;;;;4.67;91.77;101101.53;5079284;27;20314;-51
2022/01/28 02:49:02;;;;;;;13.37;2.27;;;;;;;4.57;92.60;101104.69;5084700;28;20707;-51
2022/01/28 02:51:28;;;;;;;9.87;2.33;;;;;;;4.48;93.50;101117.41;5077583;27;20689;-50
2022/01/28 02:53:58;;;;;;;14.70;3.07;;;;;;;4.34;96.95;101110.91;5082639;28;20764;-49
2022/01/28 02:56:35;;;;;;;8.97;2.93;;;;;;;4.22;99.73;101127.03;5074392;28;20315;-53
2022/01/28 02:59:01;;;;;;;9.13;2.80;;;;;;;4.12;100.00;101123.25;5082465;28;20290;-49
2022/01/28 03:01:28;;;;;;;11.00;2.80;;;;;;;4.19;100.00;101124.34;5087464;28;20237;-51
2022/01/28 03:03:55;;;;;;;10.07;2.33;;;;;;;4.12;99.33;101132.78;5085542;27;20244;-52
2022/01/28 03:06:22;;;;;;;10.70;2.60;;;;;;;4.09;97.75;101122.28;5076690;28;20322;-51
2022/01/28 03:08:55;;;;;;;13.37;3.57;;;;;;;4.17;96.90;101126.88;5088995;28;20260;-50
2022/01/28 03:11:42;;;;;;;5.23;2.17;;;;;;;4.21;95.78;101128.75;5083125;28;20256;-50
2022/01/28 03:14:21;;;;;;;13.17;2.90;;;;;;;4.32;94.00;101131.69;5086145;27;20233;-49
2022/01/28 03:19:50;;;;;;;14.03;2.60;;;;;;;4.31;94.02;101153.28;5088819;27;20241;-51
2022/01/28 03:22:17;;;;;;;11.30;2.93;;;;;;;4.37;92.58;101155.19;5086273;28;20279;-50
2022/01/28 03:24:47;;;;;;;12.83;2.93;;;;;;;4.43;93.06;101145.00;5088077;28;20280;-49
2022/01/28 03:27:24;;;;;;;17.77;3.03;;;;;;;4.47;93.60;101144.25;5078196;28;20263;-48
2022/01/28 03:29:51;;;;;;;8.40;2.63;;;;;;;4.47;92.86;101162.44;5070984;28;20243;-47
2022/01/28 03:32:17;;;;;;;9.77;3.37;;;;;;;4.56;91.11;101173.13;5076558;28;20331;-50
2022/01/28 03:34:43;;;;;;;10.80;2.53;;;;;;;4.55;90.80;101176.56;5082708;28;20372;-51
2022/01/28 03:37:11;;;;;;;8.60;2.67;;;;;;;4.55;90.55;101169.63;5076240;28;20226;-49
2022/01/28 03:39:38;;;;;;;11.23;2.30;;;;;;;4.62;90.73;101177.63;5079985;28;20242;-51
2022/01/28 03:42:05;;;;;;;15.00;3.40;;;;;;;4.63;89.47;101184.59;5080534;27;20845;-49
2022/01/28 03:44:34;;;;;;;11.63;2.50;;;;;;;4.62;90.27;101175.91;5079517;27;20329;-50
2022/01/28 03:47:01;;;;;;;12.03;2.80;;;;;;;4.67;89.71;101189.94;5080912;28;20236;-51
2022/01/28 03:49:27;;;;;;;13.10;3.33;;;;;;;4.68;89.19;101189.09;5079317;28;20707;-50
2022/01/28 03:51:53;;;;;;;8.47;2.80;;;;;;;4.76;88.33;101185.00;5082389;28;20398;-51
2022/01/28 03:54:20;;;;;;;11.17;2.47;;;;;;;4.72;88.06;101190.94;5079702;28;20714;-51
2022/01/28 03:56:46;;;;;;;9.47;3.03;;;;;;;4.72;87.87;101198.75;5080017;28;20916;-51
2022/01/28 03:59:12;;;;;;;11.30;3.10;;;;;;;4.69;88.02;101205.59;5077191;28;20272;-51
2022/01/28 04:01:41;;;;;;;9.43;2.53;;;;;;;4.60;87.24;101210.50;5080972;28;20663;-49
2022/01/28 04:04:57;;;;;;;10.93;3.00;;;;;;;4.73;88.05;101210.91;5080987;27;20230;-52
2022/01/28 04:12:38;;;;;;;12.27;2.50;;;;;;;4.81;86.21;101236.28;5079835;28;20242;-52
2022/01/28 04:15:19;;;;;;;11.07;3.03;;;;;;;4.69;86.55;101236.78;5080252;28;20805;-51
2022/01/28 04:17:47;;;;;;;10.80;3.60;;;;;;;4.72;86.98;101258.56;5081188;28;20230;-50
2022/01/28 04:20:13;;;;;;;11.17;2.17;;;;;;;4.78;86.56;101252.69;5076783;28;20727;-51
2022/01/28 04:22:39;;;;;;;8.23;3.23;;;;;;;4.74;85.77;101251.72;5073046;28;20338;-51
2022/01/28 04:25:06;;;;;;;7.70;1.80;;;;;;;4.77;85.78;101267.44;5075147;27;20255;-49
2022/01/28 04:27:33;;;;;;;8.00;2.43;;;;;;;4.83;83.50;101263.22;5080775;27;20254;-50
2022/01/28 04:29:59;;;;;;;12.57;2.77;;;;;;;4.87;83.32;101278.09;5065315;28;20239;-52
2022/01/28 04:32:28;;;;;;;7.00;2.57;;;;;;;4.87;83.28;101272.88;5083820;28;20296;-50
2022/01/28 04:34:58;;;;;;;9.67;2.10;;;;;;;4.91;83.96;101269.53;5077582;28;20226;-48
2022/01/28 04:37:30;;;;;;;7.50;2.70;;;;;;;4.85;83.39;101277.19;5067821;28;20296;-50
2022/01/28 04:40:04;;;;;;;7.43;2.33;;;;;;;4.77;82.56;101288.22;5075420;28;20227;-50
2022/01/28 04:42:53;;;;;;;9.43;3.00;;;;;;;4.85;82.77;101290.19;5078259;28;20788;-52
2022/01/28 04:45:26;;;;;;;9.93;2.87;;;;;;;4.87;82.65;101296.31;5070250;27;20250;-49
2022/01/28 04:48:04;;;;;;;8.73;3.23;;;;;;;4.89;81.61;101286.84;5079678;28;20744;-51
2022/01/28 04:50:41;;;;;;;7.40;2.90;;;;;;;4.88;82.14;101301.56;5079078;28;20317;-51
2022/01/28 04:53:20;;;;;;;12.37;2.27;;;;;;;4.93;80.71;101301.72;5074032;28;20223;-50
2022/01/28 04:56:03;;;;;;;11.00;3.07;;;;;;;4.82;82.72;101295.28;5078279;28;20226;-48
2022/01/28 04:58:43;;;;;;;11.80;2.27;;;;;;;4.88;82.28;101300.66;5080876;27;20262;-50
2022/01/28 05:04:07;;;;;;;10.70;4.20;;;;;;;4.93;82.32;101315.59;5077870;27;20744;-51
2022/01/28 05:07:04;;;;;;;6.23;2.50;;;;;;;4.97;82.21;101316.56;5075753;28;20234;-50
2022/01/28 05:15:36;;;;;;;10.13;2.50;;;;;;;4.91;81.73;101337.19;5081049;28;20633;-50
2022/01/28 05:24:07;;;;;;;9.20;2.33;;;;;;;4.98;81.61;101365.16;5080324;28;20261;-51
2022/01/28 05:26:35;;;;;;;11.47;3.23;;;;;;;4.99;81.42;101361.75;5082066;28;20234;-50
2022/01/28 05:29:02;;;;;;;10.90;2.60;;;;;;;5.01;80.76;101365.28;5083900;27;20222;-52
2022/01/28 05:31:28;;;;;;;12.37;2.33;;;;;;;4.91;81.48;101381.41;5088838;28;20290;-49
2022/01/28 05:33:54;;;;;;;12.87;3.77;;;;;;;4.99;80.55;101377.38;5085711;28;20238;-49
2022/01/28 05:36:21;;;;;;;9.17;3.07;;;;;;;4.97;80.83;101392.03;5079618;28;20331;-51
2022/01/28 05:38:48;;;;;;;10.00;2.73;;;;;;;5.00;80.83;101386.94;5079924;27;20234;-50
2022/01/28 05:41:15;;;;;;;11.50;2.93;;;;;;;4.99;80.97;101392.97;5081241;28;20265;-51
2022/01/28 05:43:41;;;;;;;5.33;2.23;;;;;;;5.01;80.17;101399.97;5085708;27;20267;-50
2022/01/28 05:46:08;;;;;;;10.23;2.40;;;;;;;4.91;81.20;101410.91;5081470;27;20292;-49
2022/01/28 05:48:35;;;;;;;12.63;2.30;;;;;;;4.91;80.85;101405.72;5083528;27;20269;-50
2022/01/28 05:51:01;;;;;;;9.73;2.63;;;;;;;4.96;81.02;101408.50;5082540;28;20235;-48
2022/01/28 05:53:27;;;;;;;6.60;2.17;;;;;;;5.01;81.86;101412.13;5086226;28;20242;-55
2022/01/28 05:55:55;;;;;;;10.43;2.83;;;;;;;4.92;80.28;101423.13;5089451;28;20753;-51
2022/01/28 05:58:21;;;;;;;9.83;2.60;;;;;;;4.96;81.61;101430.19;5085300;27;20250;-51
2022/01/28 06:00:48;;;;;;;14.67;3.57;;;;;;;4.95;82.87;101427.50;5076663;28;20720;-47
2022/01/28 06:03:14;;;;;;;4.60;1.93;;;;;;;4.97;81.01;101421.53;5064720;28;20235;-49
2022/01/28 06:05:40;;;;;;;5.97;2.80;;;;;;;4.94;81.25;101450.06;5066746;28;20242;-51
2022/01/28 06:08:07;;;;;;;7.13;3.37;;;;;;;5.04;82.06;101453.84;5079737;28;20287;-47
2022/01/28 06:10:33;;;;;;;10.33;2.57;;;;;;;5.01;82.66;101456.34;5083856;28;20267;-52
2022/01/28 06:13:01;;;;;;;8.70;2.80;;;;;;;4.98;82.84;101464.06;5078165;28;20227;-49
2022/01/28 06:15:27;;;;;;;10.47;3.37;;;;;;;4.89;83.88;101485.47;5077162;27;20222;-53
2022/01/28 06:17:53;;;;;;;17.53;3.33;;;;;;;4.94;82.72;101488.22;5087205;28;20227;-49
2022/01/28 06:20:21;;;;;;;8.20;2.23;;;;;;;4.92;83.26;101493.38;5085090;27;20350;-47
2022/01/28 06:22:48;;;;;;;15.13;2.70;;;;;;;4.97;83.37;101502.19;5083524;28;20590;-52
2022/01/28 06:25:15;;;;;;;11.00;2.93;;;;;;;4.84;83.82;101512.13;5082043;28;20227;-51
2022/01/28 06:27:42;;;;;;;7.40;3.07;;;;;;;4.91;83.90;101514.13;5086034;27;20559;-45
2022/01/28 06:30:11;;;;;;;7.63;2.67;;;;;;;4.97;82.21;101529.94;5079357;27;20231;-51
2022/01/28 06:32:37;;;;;;;12.30;3.13;;;;;;;4.99;82.58;101517.88;5087717;27;20233;-51
2022/01/28 06:35:08;;;;;;;8.90;2.57;;;;;;;4.94;82.40;101509.03;5094521;28;20264;-51
2022/01/28 06:37:35;;;;;;;16.97;3.20;;;;;;;4.98;82.24;101539.50;5087961;28;20299;-53
2022/01/28 06:40:01;;;;;;;13.90;2.70;;;;;;;4.94;82.53;101540.25;5074909;28;20255;-48
2022/01/28 06:42:27;;;;;;;13.80;3.97;;;;;;;4.86;82.30;101550.38;5072169;28;20615;-51
2022/01/28 06:44:54;;;;;;;15.73;3.30;;;;;;;4.93;82.52;101543.69;5078226;28;20230;-48
2022/01/28 06:47:21;;;;;;;10.00;2.70;;;;;;;4.90;81.77;101551.38;5075225;28;20318;-50
2022/01/28 06:49:48;;;;;;;10.23;2.13;;;;;;;4.92;81.37;101553.22;5080180;28;20237;-50
2022/01/28 06:52:14;;;;;;;10.33;2.63;;;;;;;4.83;82.32;101565.88;5077139;28;20230;-50
2022/01/28 06:54:40;;;;;;;12.20;3.30;;;;;;;4.87;81.31;101577.28;5078608;28;20254;-49
2022/01/28 06:57:07;;;;;;;9.97;3.23;;;;;;;4.81;81.97;101569.25;5080434;28;20531;-49
2022/01/28 06:59:33;;;;;;;9.73;2.73;;;;;;;4.84;82.54;101584.97;5081685;28;20257;-53
2022/01/28 07:01:59;;;;;;;12.53;2.80;;;;;;;4.81;82.32;101584.88;5077008;28;20231;-48
2022/01/28 07:04:27;;;;;;;13.93;3.20;;;;;;;4.82;81.54;101591.88;5080106;28;20656;-47
2022/01/28 07:06:53;;;;;;;12.03;3.40;;;;;;;4.83;81.38;101591.91;5078938;28;20250;-50
2022/01/28 07:09:20;;;;;;;15.93;3.13;;;;;;;4.84;80.71;101598.00;5080905;28;20276;-52
2022/01/28 07:11:46;;;;;;;17.23;3.27;;;;;;;4.82;80.74;101597.06;5077443;27;20363;-50
2022/01/28 07:14:12;;;;;;;13.47;3.93;;;;;;;4.79;79.96;101609.13;5077939;28;20241;-51
2022/01/28 07:16:38;;;;;;;8.00;2.63;;;;;;;4.76;80.88;101603.81;5074328;28;20661;-51
2022/01/28 07:19:05;;;;;;;11.67;2.77;;;;;;;4.68;80.62;101626.06;5073500;28;20231;-49
2022/01/28 07:21:33;;;;;;;15.10;2.60;;;;;;;4.75;80.64;101628.06;5085097;27;20235;-50
2022/01/28 07:23:59;;;;;;;12.63;3.40;;;;;;;4.70;80.21;101634.81;5079946;28;20313;-50
2022/01/28 07:26:25;;;;;;;15.50;3.27;;;;;;;4.67;80.01;101639.91;5071536;28;20245;-49
2022/01/28 07:28:52;;;;;;;15.90;3.40;;;;;;;4.54;79.97;101637.66;5075297;28;20702;-48
2022/01/28 07:31:19;;;;;;;11.40;4.40;;;;;;;4.52;80.36;101653.19;5073524;27;20257;-51
2022/01/28 07:33:45;;;;;;;11.50;3.07;;;;;;;4.54;80.21;101642.84;5075480;27;20258;-48
2022/01/28 07:36:13;;;;;;;8.17;2.47;;;;;;;4.55;80.99;101657.63;5079165;28;20295;-48
2022/01/28 07:38:41;;;;;;;12.10;2.63;;;;;;;4.48;80.99;101663.41;5080281;28;20313;-49
2022/01/28 07:41:07;;;;;;;8.30;2.53;;;;;;;4.45;81.35;101684.97;5073992;27;20238;-50
2022/01/28 07:43:37;;;;;;;9.70;2.60;;;;;;;4.45;80.61;101686.69;5078222;27;20246;-47
2022/01/28 07:46:03;;;;;;;9.63;3.03;;;;;;;4.33;81.26;101684.50;5075859;27;20907;-47
2022/01/28 07:48:30;;;;;;;11.40;2.87;;;;;;;4.37;81.29;101696.81;5079177;28;20834;-52
2022/01/28 07:50:56;;;;;;;19.13;3.67;;;;;;;4.31;81.89;101696.53;5082317;28;20231;-50
2022/01/28 07:53:22;;;;;;;11.83;2.87;;;;;;;4.35;81.41;101702.75;5068436;28;20663;-50
2022/01/28 07:55:50;;;;;;;11.40;2.97;;;;;;;4.22;82.29;101717.88;5070512;28;20287;-51
2022/01/28 07:58:16;;;;;;;12.57;2.80;;;;;;;4.29;81.49;101698.22;5063293;28;20329;-51
2022/01/28 08:00:43;;;;;;;12.10;3.10;;;;;;;4.12;81.96;101720.03;5073256;28;20359;-53
2022/01/28 08:03:09;;;;;;;13.10;2.77;;;;;;;4.18;81.95;101726.38;5079554;28;20257;-51
2022/01/28 08:05:35;;;;;;;10.97;3.00;;;;;;;4.06;82.84;101734.53;5082880;28;20229;-51
2022/01/28 08:08:04;;;;;;;17.47;4.37;;;;;;;4.14;82.20;101747.88;5095651;27;20291;-51
2022/01/28 08:10:31;;;;;;;11.63;3.30;;;;;;;4.19;81.59;101753.25;5091453;28;20247;-52
2022/01/28 08:13:00;;;;;;;11.13;3.80;;;;;;;4.20;81.92;101758.50;5094297;27;20286;-52
2022/01/28 08:15:27;;;;;;;10.67;3.80;;;;;;;4.27;82.00;101760.53;5091504;28;20238;-49
2022/01/28 08:17:53;;;;;;;14.13;3.23;;;;;;;4.28;82.36;101770.13;5071125;28;20333;-53
2022/01/28 08:20:19;;;;;;;12.93;2.77;;;;;;;4.27;82.20;101768.31;5079459;27;20351;-56
2022/01/28 08:22:47;;;;;;;14.60;3.97;;;;;;;4.30;81.54;101771.06;5080256;28;20265;-51
2022/01/28 08:25:13;;;;;;;8.33;2.90;;;;;;;4.23;82.03;101784.63;5068116;27;20238;-49
2022/01/28 08:27:42;;;;;;;9.60;2.53;;;;;;;4.33;81.03;101785.91;5073250;28;20257;-50
2022/01/28 08:30:11;;;;;;;22.67;4.17;;;;;;;4.39;81.10;101782.66;5073142;28;20320;-48
2022/01/28 08:32:38;;;;;;;16.10;3.87;;;;;;;4.43;80.38;101795.84;5077908;28;20249;-49
2022/01/28 08:35:04;;;;;;;12.37;3.23;;;;;;;4.39;80.20;101788.75;5078543;27;20245;-52
2022/01/28 08:37:31;;;;;;;13.53;5.23;;;;;;;4.38;80.09;101796.47;5075906;28;20258;-52
2022/01/28 08:39:57;;;;;;;17.50;3.47;;;;;;;4.43;80.21;101794.97;5084022;28;20241;-50
2022/01/28 08:42:24;;;;;;;12.93;3.10;;;;;;;4.42;80.09;101803.56;5079671;27;20332;-52
2022/01/28 08:44:50;;;;;;;9.40;2.93;;;;;;;4.56;79.63;101807.63;5082590;28;20253;-52
2022/01/28 08:47:18;;;;;;;17.43;4.37;;;;;;;4.57;79.18;101813.75;5083105;27;20229;-50
2022/01/28 08:49:44;;;;;;;12.63;3.00;;;;;;;4.49;79.61;101811.72;5080639;28;20379;-49
2022/01/28 08:52:10;;;;;;;13.93;3.07;;;;;;;4.68;78.38;101828.94;5082331;27;20276;-50
2022/01/28 08:54:37;;;;;;;14.87;4.57;;;;;;;4.63;78.19;101826.97;5078277;28;20257;-50
2022/01/28 08:57:03;;;;;;;12.27;3.63;;;;;;;4.63;78.11;101835.66;5076994;28;20230;-48
2022/01/28 08:59:30;;;;;;;11.27;3.30;;;;;;;4.69;77.62;101835.03;5080096;27;20238;-51
2022/01/28 09:01:56;;;;;;;15.60;3.53;;;;;;;4.73;77.70;101843.00;5077319;28;20253;-51
2022/01/28 09:04:24;;;;;;;25.87;4.73;;;;;;;4.79;77.19;101845.88;5077788;28;20250;-51
2022/01/28 09:06:50;;;;;;;11.70;3.00;;;;;;;4.84;77.14;101858.16;5081011;28;21675;-48
2022/01/28 09:09:18;;;;;;;15.73;3.30;;;;;;;4.90;77.32;101874.03;5079642;27;20258;-52
2022/01/28 09:11:53;;;;;;;14.27;3.17;;;;;;;4.90;77.40;101866.22;5077904;28;20329;-49
2022/01/28 09:14:22;;;;;;;12.90;3.30;;;;;;;4.86;75.87;101866.94;5076513;28;20229;-48
2022/01/28 09:16:48;;;;;;;17.60;3.77;;;;;;;4.74;76.63;101886.44;5081436;28;20257;-51
2022/01/28 09:19:15;;;;;;;18.43;4.30;;;;;;;4.76;77.01;101884.75;5084272;28;20227;-51
2022/01/28 09:21:42;;;;;;;17.13;4.57;;;;;;;4.80;76.25;101875.38;5084920;27;20238;-52
2022/01/28 09:24:09;;;;;;;11.20;3.53;;;;;;;4.83;76.97;101885.03;5083034;28;20280;-52
2022/01/28 09:26:36;;;;;;;18.00;3.70;;;;;;;4.85;76.46;101878.19;5081977;27;20307;-49
2022/01/28 09:29:03;;;;;;;7.90;3.37;;;;;;;4.85;76.20;101883.38;5081050;28;20730;-51
2022/01/28 09:31:29;;;;;;;10.93;3.30;;;;;;;4.86;76.00;101890.34;5066799;28;20262;-50
2022/01/28 09:33:56;;;;;;;11.47;3.30;;;;;;;4.95;75.71;101888.09;5064003;28;20252;-50
2022/01/28 09:36:23;;;;;;;20.83;3.67;;;;;;;5.08;75.40;101900.78;5061767;28;20310;-52
2022/01/28 09:38:51;;;;;;;8.73;2.77;;;;;;;5.10;75.79;101901.75;5076323;28;20231;-52
2022/01/28 09:41:17;;;;;;;13.10;3.43;;;;;;;5.15;75.20;101913.22;5082789;27;20330;-52
2022/01/28 09:43:45;;;;;;;8.17;3.20;;;;;;;5.11;75.30;101907.84;5077493;27;20386;-52
2022/01/28 09:46:12;;;;;;;12.67;3.00;;;;;;;5.11;74.78;101919.13;5086306;28;20226;-51
2022/01/28 09:48:39;;;;;;;11.63;3.63;;;;;;;5.04;75.61;101927.53;5078978;27;20235;-54
2022/01/28 09:51:06;;;;;;;10.63;3.03;;;;;;;5.06;76.05;101933.69;5090212;27;20234;-52
2022/01/28 09:53:33;;;;;;;6.87;2.83;;;;;;;5.07;74.91;101931.97;5096684;27;20234;-51
2022/01/28 09:56:01;;;;;;;10.83;2.77;;;;;;;5.06;75.26;101944.09;5099412;28;20279;-49
2022/01/28 09:58:27;;;;;;;13.32;3.60;;;;;;;5.19;75.33;101954.16;5101994;28;20410;-52
2022/01/28 10:00:53;;;;;;;15.68;4.20;;;;;;;5.21;74.44;101954.25;5110892;27;20413;-51
2022/01/28 10:03:20;;;;;;;11.17;3.63;;;;;;;5.20;74.06;101965.50;5097229;28;20230;-50
2022/01/28 10:05:50;;;;;;;11.43;3.63;;;;;;;5.21;74.31;101972.47;5093877;28;20234;-51
2022/01/28 10:08:18;;;;;;;15.30;2.97;;;;;;;5.23;74.26;101971.72;5086751;27;20261;-49
2022/01/28 10:10:50;;;;;;;15.17;4.00;;;;;;;5.20;74.49;101974.19;5088546;28;20237;-50
2022/01/28 10:13:22;;;;;;;12.17;3.80;;;;;;;5.14;73.68;101986.94;5081220;28;20234;-51
2022/01/28 10:16:03;;;;;;;15.65;3.30;;;;;;;5.15;73.45;101999.13;5074021;27;20482;-50
2022/01/28 10:18:38;;;;;;;14.23;2.97;;;;;;;5.09;74.50;101995.38;5077534;28;20239;-50
2022/01/28 10:21:15;;;;;;;9.67;2.57;;;;;;;5.18;74.24;102001.88;5094283;28;20715;-48
2022/01/28 10:23:41;;;;;;;12.87;3.20;;;;;;;5.30;73.55;102000.59;5083899;27;20256;-49
2022/01/28 10:26:07;;;;;;;9.67;2.63;;;;;;;5.35;73.74;102004.28;5077486;28;20710;-50
2022/01/28 10:28:35;;;;;;;11.00;3.80;;;;;;;5.26;73.34;101999.56;5075206;28;20889;-51
2022/01/28 10:31:04;;;;;;;10.65;3.42;;;;;;;5.39;73.66;101998.38;5082360;28;20923;-48
2022/01/28 10:33:30;;;;;;;11.63;3.93;;;;;;;5.44;73.91;102000.34;5082947;27;20334;-52
2022/01/28 10:35:58;;;;;;;12.10;2.90;;;;;;;5.47;73.40;102005.66;5079511;28;20658;-49
2022/01/28 10:38:28;;;;;;;11.93;3.37;;;;;;;5.57;72.59;102004.31;5084564;28;20751;-50
2022/01/28 10:41:12;;;;;;;18.23;3.47;;;;;;;5.72;72.44;102023.16;5080969;28;20241;-54
2022/01/28 10:43:45;;;;;;;12.40;3.20;;;;;;;5.77;72.01;102004.22;5070369;28;20751;-52
2022/01/28 10:46:11;;;;;;;10.40;2.80;;;;;;;5.82;71.83;102010.47;5075099;27;20744;-49
2022/01/28 10:48:51;;;;;;;14.57;3.37;;;;;;;5.80;71.61;102015.66;5079456;28;20270;-48
2022/01/28 10:51:19;;;;;;;11.60;2.97;;;;;;;5.77;72.21;102014.63;5082619;28;20260;-51
2022/01/28 10:54:04;;;;;;;13.77;3.03;;;;;;;5.70;71.92;102009.19;5083967;27;20231;-50
2022/01/28 10:56:30;;;;;;;15.57;3.20;;;;;;;5.52;72.50;102024.09;5074332;28;20625;-51
2022/01/28 10:58:58;;;;;;;12.63;3.27;;;;;;;5.54;72.47;102022.41;5073561;28;20291;-48
2022/01/28 11:01:25;;;;;;;8.67;3.17;;;;;;;5.57;72.63;102009.50;5070548;28;20300;-50
2022/01/28 11:03:54;;;;;;;13.20;3.50;;;;;;;5.55;72.15;102010.31;5077591;28;20242;-53
2022/01/28 11:06:21;;;;;;;8.93;2.70;;;;;;;5.54;72.91;102017.19;5076213;28;20258;-49
2022/01/28 11:08:47;;;;;;;12.73;3.23;;;;;;;5.62;72.54;102026.25;5085054;28;20330;-50
2022/01/28 11:11:13;;;;;;;13.47;3.03;;;;;;;5.71;71.94;102018.75;5078504;28;20322;-52
2022/01/28 11:13:41;;;;;;;8.67;3.47;;;;;;;5.70;72.93;102031.75;5072572;28;20262;-48
2022/01/28 11:16:09;;;;;;;9.00;3.37;;;;;;;5.83;72.14;102027.91;5079158;28;20310;-50
2022/01/28 11:18:35;;;;;;;19.03;5.97;;;;;;;5.86;71.83;102038.44;5080049;28;20262;-50
2022/01/28 11:21:05;;;;;;;12.43;2.73;;;;;;;5.86;71.37;102036.75;5077932;28;20238;-49
2022/01/28 11:23:36;;;;;;;7.07;2.20;;;;;;;5.90;71.19;102035.16;5080569;28;20688;-49
2022/01/28 11:26:16;;;;;;;11.57;3.70;;;;;;;5.93;71.50;102043.09;5081494;28;20230;-51
2022/01/28 11:28:45;;;;;;;12.00;3.37;;;;;;;5.99;71.89;102056.38;5073359;28;20311;-50
2022/01/28 11:31:14;;;;;;;6.73;2.63;;;;;;;6.06;71.33;102061.00;5065216;28;20257;-50
2022/01/28 11:33:45;;;;;;;7.83;2.70;;;;;;;6.08;70.89;102077.59;5070959;28;20736;-50
2022/01/28 11:36:11;;;;;;;5.87;2.43;;;;;;;6.12;70.84;102074.28;5078393;28;20279;-51
2022/01/28 11:38:42;;;;;;;13.33;2.83;;;;;;;6.23;70.80;102087.72;5069840;28;20262;-50
2022/01/28 11:41:11;;;;;;;14.10;3.10;;;;;;;6.11;70.85;102088.16;5075395;28;20225;-51
2022/01/28 11:43:46;;;;;;;6.13;2.10;;;;;;;5.99;70.58;102098.06;5077212;28;20317;-51
2022/01/28 11:46:21;;;;;;;6.07;2.40;;;;;;;5.97;71.01;102105.84;5082604;28;20434;-50
2022/01/28 11:49:24;;;;;;;7.07;2.90;;;;;;;5.98;70.15;102105.00;5074493;27;20731;-51
2022/01/28 11:51:51;;;;;;;12.23;3.20;;;;;;;5.94;70.98;102110.06;5069108;28;20242;-49
2022/01/28 11:54:21;;;;;;;16.40;3.43;;;;;;;5.89;70.91;102095.91;5080867;27;20608;-53
2022/01/28 11:57:13;;;;;;;8.23;2.00;;;;;;;5.92;71.71;102098.63;5074463;28;20730;-51
2022/01/28 11:59:40;;;;;;;9.85;3.13;;;;;;;5.89;71.84;102095.91;5077763;28;20974;-48
2022/01/28 12:02:11;;;;;;;7.40;2.87;;;;;;;5.95;71.72;102090.97;5072495;27;20227;-51
2022/01/28 12:04:39;;;;;;;10.73;2.50;;;;;;;6.04;71.10;102093.94;5071748;27;20313;-51
2022/01/28 12:07:09;;;;;;;7.77;2.37;;;;;;;5.97;71.70;102099.75;5076449;28;20238;-50
2022/01/28 12:09:37;;;;;;;10.63;3.47;;;;;;;6.04;71.40;102096.56;5077067;28;20626;-50
2022/01/28 12:12:07;;;;;;;8.47;3.40;;;;;;;6.02;72.17;102102.53;5076051;28;20616;-51
2022/01/28 12:14:56;;;;;;;11.17;2.83;;;;;;;6.09;70.39;102105.44;5080262;28;20302;-50
2022/01/28 12:17:47;;;;;;;6.37;2.13;;;;;;;6.17;70.69;102110.94;5077975;28;20303;-50
2022/01/28 12:20:36;;;;;;;6.70;2.50;;;;;;;6.22;70.88;102117.25;5076296;28;20777;-48